Nearby METAR Reports

 

KSJC - San Jose, California, USA
Distance from station: NE 14km
Updated: 29/11/2020 04:53
Clear
Clear
 Wind from SSE
Wind: SSE 6 km/h
Temperature: 10°C
Dew Point: 1°C
Humidity: 54%
Barometer: 1022 hPa
Clouds: Clear
Visibility: 16 km
2020/11/29 02:53 KSJC 290253Z 15003KT 10SM CLR 10/01 A3018 RMK AO2 SLP220 T01000011 53002
KNUQ - Moffett Nas/Mtn, California, USA
Distance from station: N 14km
Updated: 15/11/2020 12:00
NOT Current
Clear
Clear
 Wind from calm
Wind: Calm
Temperature: 6°C
Dew Point: 5°C
Humidity: 93%
Barometer: 1025.4 hPa
Clouds: Clear
Visibility: 16 km
2020/11/15 10:00 KNUQ 151000Z AUTO 00000KT 10SM CLR 06/05 A3028 RMK AO2
 
KPAO - Palo Alto, California, USA
Distance from station: NNW 23km
Updated: 29/11/2020 01:47
NOT Current
Clear
Clear
 Wind from NW
Wind: NW 13 km/h
Temperature: 16°C
Dew Point: 2°C
Humidity: 39%
Barometer: 1022.4 hPa
Clouds: Clear
Visibility: 16 km
2020/11/28 23:47 KPAO 282347Z 31007KT 10SM SKC 16/02 A3019
KRHV - San Jose/Reid, California, USA
Distance from station: ENE 19km
Updated: 29/11/2020 04:50
Clear
Clear
 Wind from calm
Wind: Calm
Temperature: 11°C
Dew Point: 2°C
Humidity: 54%
Barometer: 1022.4 hPa
Clouds: Clear
Visibility: 16 km
2020/11/29 02:50 KRHV 290250Z 00000KT 10SM SKC 11/02 A3019
 
KOAK - Oakland, California, USA
Distance from station: NNW 50km
Updated: 29/11/2020 04:53
Clear
Clear
 Wind from SSE
Wind: SSE 7 km/h
Temperature: 13°C
Dew Point: 4°C
Humidity: 55%
Barometer: 1022.7 hPa
Clouds: Clear
Visibility: 16 km
2020/11/29 02:53 KOAK 290253Z 16004KT 10SM CLR 13/04 A3020 RMK AO2 SLP225 T01330039 53002
KSQL - San Carlos Airpo, California, USA
Distance from station: NW 34km
Updated: 29/11/2020 04:48
Clear
Clear
 Wind from calm
Wind: Calm
Temperature: 11°C
Dew Point: 2°C
Humidity: 54%
Barometer: 1022.4 hPa
Clouds: Clear
Visibility: 16 km
2020/11/29 02:48 KSQL 290248Z 00000KT 10SM SKC 11/02 A3019
 
KSFO - San Francisco, California, USA
Distance from station: NW 49km
Updated: 29/11/2020 04:56
Clear
Clear
 Wind from S
Wind: S 6 km/h
Temperature: 11°C
Dew Point: 3°C
Humidity: 58%
Barometer: 1022 hPa
Clouds: Clear
Visibility: 16 km
2020/11/29 02:56 KSFO 290256Z 18003KT 10SM CLR 11/03 A3018 RMK AO2 SLP221 T01110033 53001
KE16 - San Martin, California, USA
Distance from station: ESE 43km
Updated: 29/11/2020 05:35
Clear
Clear
 Wind from NNW
Wind: NNW 6 km/h
Temperature: 10°C
Dew Point: 1°C
Humidity: 54%
Barometer: 1022.7 hPa
Clouds: Clear
Visibility: 16 km
2020/11/29 03:35 KE16 290335Z AUTO 33003KT 10SM CLR 10/01 A3020 RMK AO2
 
KWVI - Watsonville, California, USA
Distance from station: SSE 44km
Updated: 29/11/2020 04:53
Clear
Clear
 Wind from calm
Wind: Calm
Temperature: 9°C
Dew Point: 6°C
Humidity: 82%
Barometer: 1021.7 hPa
Clouds: Clear
Visibility: 16 km
2020/11/29 02:53 KWVI 290253Z AUTO 00000KT 10SM CLR 09/06 A3017 RMK AO2 SLP218 T00940056 51009
KHAF - Half Moon Bay, California, USA
Distance from station: WNW 50km
Updated: 29/11/2020 05:35
Clear
Clear
 Wind from calm
Wind: Calm
Temperature: 8°C
Dew Point: 2°C
Humidity: 66%
Barometer: 1022 hPa
Clouds: Clear
Visibility: 14 km
2020/11/29 03:35 KHAF 290335Z AUTO 00000KT 9SM CLR 08/02 A3018 RMK AO2
 
KHWD - Hayward, California, USA
Distance from station: N 44km
Updated: 29/11/2020 04:54
Clear
Clear
 Wind from NE
Wind: NE 9 km/h
Temperature: 13°C
Dew Point: 0°C
Humidity: 41%
Barometer: 1022 hPa
Clouds: Clear
Visibility: 16 km
2020/11/29 02:54 KHWD 290254Z 05005KT 10SM CLR 13/00 A3018 RMK AO2 SLP230 T01280000 53002
KLVK - Livermore, California, USA
Distance from station: NNE 51km
Updated: 29/11/2020 04:53
Clear
Clear
 Wind from ENE
Wind: ENE 6 km/h
Temperature: 9°C
Dew Point: -1°C
Humidity: 50%
Barometer: 1022.4 hPa
Clouds: Clear
Visibility: 16 km
2020/11/29 02:53 KLVK 290253Z AUTO 07003KT 10SM CLR 09/M01 A3019 RMK AO2 SLP224 T00891011 51003